Terminal Aerodrome Forecast
Issued by NWS Omaha/Valley, NE

Home | Current Version | Previous Version | Text Only | Print | Product List | Glossary Off
Versions: 1 2 3 4 5 6 7 8 9 10 11 12 13 14 15 16 17 18 19 20 21 22 23 24 25 26 27 28 29 30 31 32 33 34 35 36 37 38 39 40 41 42 43 44

000
FTUS43 KOAX 231857 AAA
TAFOFK
TAF AMD
KOFK 231857Z 2319/2418 05015G25KT P6SM OVC006
     FM232300 04015G24KT 3SM -SN OVC003
     FM240100 03015G23KT 1SM -SN OVC008
     FM240900 36018G27KT 1 1/2SM -SN BLSN OVC008=

USA.gov is the U.S. government's official web portal to all federal, state and local government web resources and services.